Decoded Metar for UUWW (MOSCOW/VNUKOVO in RUSSIA) (IATA:VKO) | Meteo·Mobile Aviation Weather
aviador You're here:

UUWW Decoded Metar

MOSCOW/VNUKOVO in RUSSIA
Report Time2018-10-17 04:30:00
UTC Time2018-10-17 05:02:31
Flight Rules vfr VFR
Wind250° at 6 kt
W.Decomp.*RWY 24: 6.0 kt HW 0 kt LCW
RWY 19: 3.9 kt HW 4.6 kt RCW
W.Rank250° ranks 5
Current wind is below 250° avg. (8.9)
Visibility9999 m
Phenomena:N/A
Clouds:N/A
Expected CloudBase > 1,200 ft AGL from Temp-Dew spread
CeilingNone
Temp06°C (ISA -8)
Dew Point03°C (81% RH)
AAT2.3°C
QNH1025 hPa
Density Alt-558 ft
Elevation666 ft
Report Wrong Elevation
Raw Report
METAR UUWW 170430Z 25003MPS CAVOK 06/03 Q1025 R24/000070 NOSIG=

Extra information for UUWW:More info

Metar Taf Metar & Taf Last 4 Metars F.Rules Stats Wind Profile Meteogram Temp Stats Airport Information Weather charts Add Link Nearby VenuesMetar ALERT Operation Metar Decoded Social comments